createdAt,value
2022-08-26T00:02:01.325Z,44.00
2022-08-26T00:04:29.735Z,47.15
2022-08-26T00:06:59.809Z,50.55
2022-08-26T00:09:28.881Z,50.95
2022-08-26T00:11:57.306Z,48.83
2022-08-26T00:14:30.943Z,49.67
2022-08-26T00:16:59.874Z,48.13
2022-08-26T00:19:28.904Z,51.08
2022-08-26T00:21:57.229Z,48.67
2022-08-26T00:24:27.208Z,46.50
2022-08-26T00:26:55.556Z,44.45
2022-08-26T00:29:24.045Z,42.42
2022-08-26T00:31:52.400Z,41.42
2022-08-26T00:34:20.708Z,45.03
2022-08-26T00:36:51.985Z,48.65
2022-08-26T00:39:21.080Z,40.97
2022-08-26T00:41:51.092Z,44.88
2022-08-26T00:44:20.164Z,40.30
2022-08-26T00:46:54.060Z,43.10
2022-08-26T00:49:30.973Z,41.92
2022-08-26T00:52:02.099Z,41.78
2022-08-26T00:54:35.579Z,41.35
2022-08-26T00:57:15.952Z,48.40
2022-08-26T00:59:48.743Z,40.55
2022-08-26T01:02:20.117Z,40.17
2022-08-26T01:04:55.825Z,49.15
2022-08-26T01:07:27.492Z,43.20
2022-08-26T01:09:59.921Z,41.83
2022-08-26T01:12:34.826Z,45.58
2022-08-26T01:15:09.716Z,42.65
2022-08-26T01:17:40.293Z,39.67
2022-08-26T01:20:20.359Z,44.58
2022-08-26T01:22:57.535Z,45.13
2022-08-26T01:25:29.472Z,43.45
2022-08-26T01:28:01.309Z,48.58
2022-08-26T01:30:31.854Z,46.88
2022-08-26T01:33:08.813Z,45.92
2022-08-26T01:35:38.604Z,45.88
2022-08-26T01:38:08.379Z,46.67
2022-08-26T01:40:43.195Z,50.60
2022-08-26T01:43:18.424Z,53.60
2022-08-26T01:45:49.424Z,54.50
2022-08-26T01:48:28.507Z,49.47
2022-08-26T01:50:57.362Z,43.60
2022-08-26T01:53:28.261Z,50.53
2022-08-26T01:56:02.225Z,49.35
2022-08-26T01:58:37.341Z,48.70
2022-08-26T02:01:07.124Z,49.17
2022-08-26T02:03:48.753Z,47.45
2022-08-26T02:06:18.488Z,42.40
2022-08-26T02:08:55.278Z,42.88
2022-08-26T02:11:23.963Z,42.80
2022-08-26T02:14:01.637Z,46.55
2022-08-26T02:16:39.713Z,45.80
2022-08-26T02:19:17.006Z,45.15
2022-08-26T02:21:50.987Z,43.03
2022-08-26T02:24:27.504Z,45.55
2022-08-26T02:26:57.507Z,44.75
2022-08-26T02:29:32.863Z,42.88
2022-08-26T02:32:01.253Z,40.25
2022-08-26T02:34:33.080Z,38.50
2022-08-26T02:37:05.964Z,41.95
2022-08-26T02:39:38.358Z,34.60
2022-08-26T02:44:35.597Z,32.50
2022-08-26T02:47:04.560Z,40.35
2022-08-26T02:49:33.769Z,40.95
2022-08-26T02:52:02.356Z,36.33
2022-08-26T02:54:31.829Z,33.80
2022-08-26T02:57:04.220Z,30.20
2022-08-26T02:59:36.419Z,32.05
2022-08-26T03:02:05.111Z,41.65
2022-08-26T03:04:33.833Z,38.10
2022-08-26T03:07:02.954Z,36.53
2022-08-26T03:09:31.494Z,32.95
2022-08-26T03:12:00.226Z,32.92
2022-08-26T03:14:30.175Z,34.53
2022-08-26T03:16:58.494Z,28.55
2022-08-26T03:19:28.080Z,30.02
2022-08-26T03:21:57.891Z,32.00
2022-08-26T03:24:27.587Z,30.73
2022-08-26T03:26:56.133Z,30.02
2022-08-26T03:29:42.961Z,28.83
2022-08-26T03:32:13.084Z,28.95
2022-08-26T03:34:41.842Z,33.38
2022-08-26T03:37:10.717Z,32.05
2022-08-26T03:39:39.005Z,34.97
2022-08-26T03:42:09.158Z,30.60
2022-08-26T03:44:42.140Z,34.00
2022-08-26T03:47:12.197Z,30.73
2022-08-26T03:49:41.769Z,29.27
2022-08-26T03:52:10.574Z,32.88
2022-08-26T03:54:40.900Z,29.10
2022-08-26T03:57:11.809Z,32.13
2022-08-26T03:59:41.357Z,37.40
2022-08-26T04:02:11.606Z,36.35
2022-08-26T04:04:41.720Z,32.22
2022-08-26T04:07:10.383Z,46.15
2022-08-26T04:09:38.756Z,32.70
2022-08-26T04:12:09.769Z,33.30
2022-08-26T04:14:39.830Z,35.72
2022-08-26T04:17:08.258Z,32.17
2022-08-26T04:19:36.607Z,33.05
2022-08-26T04:22:06.481Z,31.98
2022-08-26T04:24:36.242Z,28.92
2022-08-26T04:27:04.625Z,26.60
2022-08-26T04:29:36.547Z,31.85
2022-08-26T04:32:08.663Z,24.08
2022-08-26T04:34:38.400Z,27.25
2022-08-26T04:37:09.775Z,30.20
2022-08-26T04:39:38.142Z,29.02
2022-08-26T04:42:07.581Z,25.98
2022-08-26T04:44:38.787Z,24.80
2022-08-26T04:47:08.373Z,27.25
2022-08-26T04:49:38.214Z,25.60
2022-08-26T04:52:08.051Z,29.38
2022-08-26T04:54:36.432Z,29.38
2022-08-26T04:57:05.250Z,28.85
2022-08-26T04:59:38.486Z,26.75
2022-08-26T05:02:08.727Z,26.88
2022-08-26T05:04:37.603Z,25.25
2022-08-26T05:07:07.777Z,23.70
2022-08-26T05:09:41.721Z,30.67
2022-08-26T05:12:10.447Z,25.95
2022-08-26T05:14:41.429Z,26.45
2022-08-26T05:17:09.802Z,24.73
2022-08-26T05:19:43.282Z,24.48
2022-08-26T05:22:13.206Z,23.30
2022-08-26T05:24:43.237Z,24.33
2022-08-26T05:27:12.516Z,21.70
2022-08-26T05:29:41.103Z,24.27
2022-08-26T05:32:09.618Z,29.20
2022-08-26T05:34:39.827Z,29.67
2022-08-26T05:37:11.213Z,28.57
2022-08-26T05:39:48.800Z,25.27
2022-08-26T05:42:20.659Z,26.48
2022-08-26T05:44:56.023Z,25.02
2022-08-26T05:47:25.330Z,25.48
2022-08-26T05:49:54.450Z,20.95
2022-08-26T05:52:24.636Z,23.55
2022-08-26T05:54:55.842Z,22.47
2022-08-26T05:57:24.139Z,27.15
2022-08-26T05:59:52.934Z,28.02
2022-08-26T06:02:21.292Z,22.25
2022-08-26T06:04:49.721Z,26.65
2022-08-26T06:07:40.562Z,27.58
2022-08-26T06:10:32.457Z,21.70
2022-08-26T06:13:09.394Z,23.13
2022-08-26T06:15:45.729Z,25.88
2022-08-26T06:18:15.499Z,24.45
2022-08-26T06:20:49.526Z,24.02
2022-08-26T06:26:16.964Z,24.95
2022-08-26T06:28:45.909Z,21.90
2022-08-26T06:31:15.583Z,20.75
2022-08-26T06:33:44.939Z,21.02
2022-08-26T06:36:19.366Z,24.10
2022-08-26T06:38:49.229Z,25.77
2022-08-26T06:41:20.920Z,20.15
2022-08-26T06:43:49.496Z,23.15
2022-08-26T06:46:21.464Z,25.50
2022-08-26T06:48:50.785Z,24.30
2022-08-26T06:51:22.397Z,21.88
2022-08-26T06:53:54.541Z,23.95
2022-08-26T06:56:27.863Z,20.60
2022-08-26T06:58:56.413Z,21.80
2022-08-26T07:01:27.836Z,18.65
2022-08-26T07:03:58.799Z,21.10
2022-08-26T07:06:28.730Z,18.75
2022-08-26T07:09:05.707Z,20.27
2022-08-26T07:11:40.627Z,20.45
2022-08-26T07:14:10.057Z,21.77
2022-08-26T07:16:41.084Z,18.52
2022-08-26T07:19:11.302Z,19.90
2022-08-26T07:21:41.938Z,22.00
2022-08-26T07:24:11.528Z,19.73
2022-08-26T07:26:42.865Z,18.00
2022-08-26T07:29:12.664Z,14.43
2022-08-26T07:31:42.379Z,24.63
2022-08-26T07:34:13.816Z,22.48
2022-08-26T07:36:42.407Z,18.15
2022-08-26T07:39:10.951Z,16.63
2022-08-26T07:41:42.394Z,22.70
2022-08-26T07:44:12.262Z,22.98
2022-08-26T07:46:40.958Z,22.73
2022-08-26T07:49:13.407Z,15.98
2022-08-26T07:51:44.838Z,17.35
2022-08-26T07:54:13.191Z,14.40
2022-08-26T07:56:44.304Z,15.15
2022-08-26T07:59:13.762Z,14.75
2022-08-26T08:01:44.912Z,20.00
2022-08-26T08:04:14.918Z,14.65
2022-08-26T08:06:44.646Z,16.20
2022-08-26T08:09:14.833Z,12.80
2022-08-26T08:11:46.737Z,11.97
2022-08-26T08:14:18.144Z,15.38
2022-08-26T08:16:51.198Z,16.50
2022-08-26T08:19:24.384Z,17.63
2022-08-26T08:22:17.050Z,15.95
2022-08-26T08:24:49.849Z,21.13
2022-08-26T08:27:24.094Z,14.35
2022-08-26T08:29:54.255Z,16.52
2022-08-26T08:32:24.372Z,14.77
2022-08-26T08:34:52.927Z,16.20
2022-08-26T08:37:21.387Z,11.00
2022-08-26T08:39:50.077Z,14.88
2022-08-26T08:42:45.665Z,13.35
2022-08-26T08:45:20.843Z,14.05
2022-08-26T08:47:56.384Z,13.80
2022-08-26T08:50:31.743Z,12.07
2022-08-26T08:53:11.854Z,12.20
2022-08-26T08:55:54.398Z,13.98
2022-08-26T09:01:06.878Z,12.02
2022-08-26T09:03:48.787Z,11.48
2022-08-26T09:06:20.403Z,16.65
2022-08-26T09:08:50.790Z,11.70
2022-08-26T09:11:21.174Z,16.05
2022-08-26T09:13:54.401Z,19.08
2022-08-26T09:16:29.500Z,15.15
2022-08-26T09:19:19.240Z,14.15
2022-08-26T09:21:55.499Z,16.77
2022-08-26T09:24:28.571Z,15.35
2022-08-26T09:26:59.082Z,12.57
2022-08-26T09:29:33.905Z,14.82
2022-08-26T09:32:19.568Z,16.70
2022-08-26T09:34:59.784Z,14.43
2022-08-26T09:37:41.297Z,12.85
2022-08-26T09:40:19.208Z,15.27
2022-08-26T09:42:48.872Z,16.20
2022-08-26T09:45:29.928Z,11.68
2022-08-26T09:48:01.340Z,10.63
2022-08-26T09:50:34.518Z,11.85
2022-08-26T09:53:16.484Z,14.95
2022-08-26T09:55:47.563Z,12.70
2022-08-26T09:58:34.709Z,10.52
2022-08-26T10:01:10.740Z,11.55
2022-08-26T10:03:42.118Z,10.02
2022-08-26T10:06:26.729Z,12.32
2022-08-26T10:08:59.994Z,15.60
2022-08-26T10:11:38.989Z,10.25
2022-08-26T10:14:15.083Z,14.30
2022-08-26T10:16:51.013Z,13.18
2022-08-26T10:19:25.242Z,16.02
2022-08-26T10:22:03.482Z,15.48
2022-08-26T10:24:43.847Z,11.77
2022-08-26T10:27:26.569Z,11.10
2022-08-26T10:30:04.968Z,15.85
2022-08-26T10:32:40.756Z,15.77
2022-08-26T10:35:14.336Z,11.40
2022-08-26T10:37:47.324Z,8.02
2022-08-26T10:40:25.836Z,11.25
2022-08-26T10:43:09.970Z,14.88
2022-08-26T10:45:47.890Z,12.50
2022-08-26T10:48:35.830Z,8.68
2022-08-26T10:51:05.724Z,14.00
2022-08-26T10:53:51.425Z,13.93
2022-08-26T10:56:39.990Z,8.98
2022-08-26T10:59:18.029Z,10.55
2022-08-26T11:01:54.772Z,15.05
2022-08-26T11:04:45.743Z,13.18
2022-08-26T11:07:43.596Z,10.57
2022-08-26T11:10:58.858Z,10.40
2022-08-26T11:14:01.341Z,12.35
2022-08-26T11:16:43.568Z,12.33
2022-08-26T11:20:02.219Z,16.73
2022-08-26T11:22:35.522Z,13.90
2022-08-26T11:25:11.801Z,9.70
2022-08-26T11:28:05.336Z,9.75
2022-08-26T11:30:56.922Z,12.77
2022-08-26T11:33:52.483Z,12.32
2022-08-26T11:36:59.662Z,13.80
2022-08-26T11:39:38.378Z,10.50
2022-08-26T11:42:31.053Z,14.13
2022-08-26T11:45:04.694Z,10.80
2022-08-26T11:47:34.288Z,12.82
2022-08-26T11:50:12.893Z,13.63
2022-08-26T11:52:41.326Z,12.60
2022-08-26T11:55:15.048Z,9.85
2022-08-26T11:57:47.179Z,12.40
2022-08-26T12:00:23.085Z,13.13
2022-08-26T12:02:53.467Z,13.43
2022-08-26T12:05:30.947Z,15.57
2022-08-26T12:08:08.221Z,16.95
2022-08-26T12:10:40.439Z,10.63
2022-08-26T12:13:10.092Z,11.48
2022-08-26T12:15:38.873Z,17.38
2022-08-26T12:18:29.348Z,14.40
2022-08-26T12:21:02.050Z,11.20
2022-08-26T12:23:43.869Z,15.23
2022-08-26T12:26:23.397Z,19.20
2022-08-26T12:28:57.471Z,8.82
2022-08-26T12:31:38.166Z,9.95
2022-08-26T12:34:17.554Z,11.15
2022-08-26T12:36:50.407Z,15.45
2022-08-26T12:39:30.228Z,11.68
2022-08-26T12:42:01.803Z,14.35
2022-08-26T12:44:54.290Z,10.20
2022-08-26T12:47:35.191Z,18.25
2022-08-26T12:50:20.881Z,13.48
2022-08-26T12:53:01.672Z,15.60
2022-08-26T12:55:40.969Z,11.98
2022-08-26T12:58:27.913Z,8.38
2022-08-26T13:00:58.638Z,10.82
2022-08-26T13:03:44.440Z,14.13
2022-08-26T13:06:18.717Z,10.38
2022-08-26T13:08:48.223Z,8.50
2022-08-26T13:11:20.469Z,9.25
2022-08-26T13:13:53.641Z,9.80
2022-08-26T13:16:23.455Z,11.65
2022-08-26T13:18:54.717Z,14.63
2022-08-26T13:21:27.444Z,13.50
2022-08-26T13:23:56.121Z,15.90
2022-08-26T13:26:25.170Z,16.58
2022-08-26T13:29:01.870Z,8.40
2022-08-26T13:31:34.515Z,11.63
2022-08-26T13:34:03.568Z,9.70
2022-08-26T13:36:31.953Z,8.38
2022-08-26T13:39:00.613Z,9.02
2022-08-26T13:41:29.830Z,12.07
2022-08-26T13:44:00.700Z,12.88
2022-08-26T13:46:30.397Z,12.20
2022-08-26T13:48:59.735Z,10.45
2022-08-26T13:51:29.019Z,12.40
2022-08-26T13:53:57.563Z,11.75
2022-08-26T13:56:29.855Z,14.80
2022-08-26T13:59:01.131Z,12.65
2022-08-26T14:01:32.184Z,9.50
2022-08-26T14:04:02.377Z,11.02
2022-08-26T14:06:30.762Z,11.80
2022-08-26T14:08:59.193Z,13.32
2022-08-26T14:11:30.020Z,13.27
2022-08-26T14:14:18.200Z,12.43
2022-08-26T14:16:58.618Z,9.35
2022-08-26T14:19:29.911Z,15.80
2022-08-26T14:22:00.629Z,9.48
2022-08-26T14:24:29.787Z,12.57
2022-08-26T14:26:58.493Z,13.82
2022-08-26T14:29:28.283Z,13.27
2022-08-26T14:31:58.592Z,13.15
2022-08-26T14:34:27.162Z,12.40
2022-08-26T14:36:55.503Z,14.38
2022-08-26T14:39:23.851Z,13.85
2022-08-26T14:41:56.720Z,13.85
2022-08-26T14:44:31.124Z,10.25
2022-08-26T14:47:03.201Z,12.07
2022-08-26T14:49:32.173Z,12.30
2022-08-26T14:52:01.009Z,8.07
2022-08-26T14:54:29.462Z,10.10
2022-08-26T14:57:02.184Z,12.43
2022-08-26T14:59:34.769Z,9.57
2022-08-26T15:04:32.201Z,12.88
2022-08-26T15:07:03.144Z,11.00
2022-08-26T15:09:35.379Z,7.18
2022-08-26T15:12:04.723Z,10.65
2022-08-26T15:14:34.625Z,13.70
2022-08-26T15:17:03.312Z,15.50
2022-08-26T15:19:31.716Z,11.50
2022-08-26T15:22:00.294Z,12.27
2022-08-26T15:24:29.671Z,7.88
2022-08-26T15:26:58.348Z,11.48
2022-08-26T15:29:26.627Z,10.77
2022-08-26T15:31:57.323Z,9.82
2022-08-26T15:34:26.503Z,11.48
2022-08-26T15:36:55.189Z,8.40
2022-08-26T15:39:23.610Z,8.18
2022-08-26T15:41:51.976Z,13.50
2022-08-26T15:44:20.579Z,9.73
2022-08-26T15:46:53.294Z,9.07
2022-08-26T15:49:25.417Z,13.45
2022-08-26T15:51:53.861Z,10.20
2022-08-26T15:54:24.392Z,14.50
2022-08-26T15:56:53.727Z,16.98
2022-08-26T15:59:23.290Z,15.95
2022-08-26T16:01:52.388Z,9.68
2022-08-26T16:04:21.469Z,10.38
2022-08-26T16:06:52.519Z,15.00
2022-08-26T16:09:24.354Z,10.10
2022-08-26T16:11:52.890Z,12.00
2022-08-26T16:14:22.381Z,11.57
2022-08-26T16:16:51.480Z,11.23
2022-08-26T16:19:20.019Z,11.95
2022-08-26T16:21:51.377Z,11.43
2022-08-26T16:24:24.850Z,13.52
2022-08-26T16:26:55.839Z,10.13
2022-08-26T16:29:25.801Z,10.68
2022-08-26T16:31:55.119Z,11.00
2022-08-26T16:34:23.797Z,9.13
2022-08-26T16:36:53.882Z,8.15
2022-08-26T16:39:22.143Z,11.18
2022-08-26T16:41:50.539Z,12.07
2022-08-26T16:44:19.272Z,11.80
2022-08-26T16:46:47.933Z,12.57
2022-08-26T16:49:16.571Z,14.00
2022-08-26T16:51:44.860Z,12.38
2022-08-26T16:54:14.826Z,14.68
2022-08-26T16:56:43.183Z,6.90
2022-08-26T16:59:12.062Z,12.02
2022-08-26T17:01:40.579Z,8.75
2022-08-26T17:04:08.987Z,14.57
2022-08-26T17:06:38.228Z,9.30
2022-08-26T17:09:07.153Z,11.85
2022-08-26T17:11:36.928Z,13.77
2022-08-26T17:14:06.012Z,11.70
2022-08-26T17:16:34.846Z,13.43
2022-08-26T17:19:04.467Z,12.73
2022-08-26T17:21:34.836Z,12.52
2022-08-26T17:24:04.899Z,10.15
2022-08-26T17:26:33.295Z,7.47
2022-08-26T17:29:03.065Z,10.50
2022-08-26T17:31:32.439Z,17.70
2022-08-26T17:34:00.889Z,13.63
2022-08-26T17:36:29.294Z,12.02
2022-08-26T17:38:59.204Z,13.45
2022-08-26T17:41:28.065Z,13.32
2022-08-26T17:43:57.077Z,10.38
2022-08-26T17:46:27.487Z,9.13
2022-08-26T17:48:56.318Z,9.35
2022-08-26T17:51:25.091Z,9.48
2022-08-26T17:53:53.887Z,12.43
2022-08-26T17:56:25.540Z,9.07
2022-08-26T17:58:55.215Z,8.13
2022-08-26T18:01:28.731Z,9.75
2022-08-26T18:04:00.429Z,13.35
2022-08-26T18:08:59.197Z,9.88
2022-08-26T18:11:28.576Z,16.95
2022-08-26T18:13:57.001Z,12.90
2022-08-26T18:16:27.000Z,10.82
2022-08-26T18:18:55.426Z,11.45
2022-08-26T18:21:27.272Z,15.25
2022-08-26T18:23:56.318Z,13.82
2022-08-26T18:26:29.542Z,10.85
2022-08-26T18:28:57.911Z,11.18
2022-08-26T18:31:27.951Z,10.52
2022-08-26T18:33:56.794Z,14.57
2022-08-26T18:36:29.951Z,11.85
2022-08-26T18:39:00.195Z,12.43
2022-08-26T18:41:32.442Z,19.17
2022-08-26T18:44:00.807Z,11.48
2022-08-26T18:46:30.545Z,13.27
2022-08-26T18:48:59.556Z,11.73
2022-08-26T18:51:32.269Z,11.25
2022-08-26T18:54:03.354Z,11.88
2022-08-26T18:56:35.112Z,17.35
2022-08-26T18:59:05.218Z,12.27
2022-08-26T19:01:37.449Z,17.58
2022-08-26T19:04:07.937Z,10.55
2022-08-26T19:06:38.866Z,9.82
2022-08-26T19:09:10.259Z,14.07
2022-08-26T19:11:43.038Z,13.68
2022-08-26T19:14:14.652Z,10.95
2022-08-26T19:16:46.588Z,12.32
2022-08-26T19:19:16.069Z,9.43
2022-08-26T19:21:44.564Z,7.55
2022-08-26T19:24:17.298Z,9.38
2022-08-26T19:26:48.434Z,9.48
2022-08-26T19:31:52.694Z,11.90
2022-08-26T19:34:21.135Z,9.13
2022-08-26T19:36:52.025Z,9.55
2022-08-26T19:39:21.071Z,11.90
2022-08-26T19:41:50.008Z,9.20
2022-08-26T19:44:34.984Z,10.35
2022-08-26T19:47:06.240Z,12.60
2022-08-26T19:49:34.933Z,7.45
2022-08-26T19:52:03.932Z,10.15
2022-08-26T19:54:32.291Z,12.98
2022-08-26T19:57:00.616Z,11.60
2022-08-26T19:59:29.016Z,8.00
2022-08-26T20:02:01.408Z,8.38
2022-08-26T20:04:32.814Z,8.18
2022-08-26T20:07:03.841Z,6.25
2022-08-26T20:09:35.045Z,9.93
2022-08-26T20:12:10.872Z,12.57
2022-08-26T20:14:39.351Z,7.03
2022-08-26T20:17:08.703Z,10.45
2022-08-26T20:19:56.292Z,5.55
2022-08-26T20:22:25.435Z,9.07
2022-08-26T20:24:56.635Z,11.98
2022-08-26T20:27:37.692Z,8.13
2022-08-26T20:30:10.245Z,12.67
2022-08-26T20:32:39.784Z,14.90
2022-08-26T20:35:13.885Z,7.43
2022-08-26T20:37:43.006Z,7.50
2022-08-26T20:40:14.340Z,9.55
2022-08-26T20:42:45.224Z,8.73
2022-08-26T20:45:13.535Z,9.88
2022-08-26T20:47:43.946Z,7.25
2022-08-26T20:50:13.832Z,7.93
2022-08-26T20:52:42.493Z,10.38
2022-08-26T20:55:11.603Z,11.20
2022-08-26T20:57:43.163Z,12.98
2022-08-26T21:00:15.917Z,10.23
2022-08-26T21:02:49.216Z,10.25
2022-08-26T21:05:22.361Z,7.53
2022-08-26T21:07:51.369Z,12.93
2022-08-26T21:10:22.332Z,12.13
2022-08-26T21:12:52.599Z,7.78
2022-08-26T21:15:23.636Z,13.15
2022-08-26T21:17:52.381Z,10.88
2022-08-26T21:20:22.712Z,8.57
2022-08-26T21:22:52.270Z,9.00
2022-08-26T21:25:21.211Z,14.48
2022-08-26T21:27:49.613Z,9.35
2022-08-26T21:30:18.077Z,10.52
2022-08-26T21:32:47.821Z,11.27
2022-08-26T21:35:19.319Z,12.55
2022-08-26T21:37:50.999Z,12.20
2022-08-26T21:40:19.626Z,13.13
2022-08-26T21:42:48.403Z,10.93
2022-08-26T21:45:17.020Z,12.10
2022-08-26T21:47:45.491Z,9.65
2022-08-26T21:50:14.567Z,10.55
2022-08-26T21:52:42.930Z,13.50
2022-08-26T21:55:13.277Z,11.43
2022-08-26T21:57:41.994Z,14.80
2022-08-26T22:00:15.554Z,16.23
2022-08-26T22:02:44.282Z,19.10
2022-08-26T22:05:12.823Z,16.33
2022-08-26T22:07:41.232Z,8.70
2022-08-26T22:10:10.081Z,14.70
2022-08-26T22:12:41.053Z,10.45
2022-08-26T22:15:12.122Z,14.55
2022-08-26T22:17:41.100Z,7.97
2022-08-26T22:20:16.524Z,13.90
2022-08-26T22:22:46.747Z,13.13
2022-08-26T22:25:15.311Z,11.48
2022-08-26T22:27:44.986Z,10.80
2022-08-26T22:30:14.113Z,15.55
2022-08-26T22:32:48.680Z,12.88
2022-08-26T22:35:28.206Z,7.63
2022-08-26T22:37:57.768Z,10.02
2022-08-26T22:40:26.464Z,11.88
2022-08-26T22:42:58.761Z,11.70
2022-08-26T22:45:29.196Z,9.98
2022-08-26T22:47:58.451Z,10.75
2022-08-26T22:50:27.485Z,13.80
2022-08-26T22:52:55.933Z,11.18
2022-08-26T22:55:24.348Z,11.68
2022-08-26T22:57:53.033Z,7.82
2022-08-26T23:00:32.122Z,8.98
2022-08-26T23:03:02.171Z,9.90
2022-08-26T23:05:31.939Z,9.90
2022-08-26T23:08:01.002Z,11.70
2022-08-26T23:10:29.925Z,10.05
2022-08-26T23:12:58.664Z,10.20
2022-08-26T23:15:28.764Z,10.25
2022-08-26T23:17:58.779Z,9.25
2022-08-26T23:20:28.763Z,8.20
2022-08-26T23:22:59.959Z,9.07
2022-08-26T23:25:29.712Z,6.82
2022-08-26T23:28:02.784Z,7.88
2022-08-26T23:30:34.410Z,9.25
2022-08-26T23:33:02.904Z,10.53
2022-08-26T23:35:30.495Z,12.82
2022-08-26T23:37:59.227Z,11.98
2022-08-26T23:40:32.830Z,6.97
2022-08-26T23:43:04.286Z,7.97
2022-08-26T23:45:35.510Z,9.27
2022-08-26T23:48:04.515Z,6.25
2022-08-26T23:50:50.755Z,12.50
2022-08-26T23:53:22.962Z,10.50
2022-08-26T23:55:54.012Z,11.35
2022-08-26T23:58:23.074Z,10.88
